Time;durP1;ratioP1;P1;durP2;ratioP2;P2;SDS_P1;SDS_P2;PMS_P1;PMS_P2;Temp;Humidity;BMP_temperature;BMP_pressure;BME280_temperature;BME280_humidity;BME280_pressure;Samples;Min_cycle;Max_cycle;Signal;HPM_P1;HPM_P2
2022/11/29 02:08:30;;;;;;;8.85;7.28;;;;;;;1.43;73.79;95035.56;1821013;78;21509;-58
2022/11/29 02:11:21;;;;;;;55.52;49.75;;;;;;;1.40;73.81;95040.39;1800975;78;21248;-58
2022/11/29 02:14:28;;;;;;;56.55;50.43;;;;;;;1.38;74.26;95046.78;1784218;78;21052;-57
2022/11/29 02:17:13;;;;;;;21.95;17.75;;;;;;;1.45;74.45;95041.94;1789048;78;21465;-56
2022/11/29 02:20:28;;;;;;;40.38;36.23;;;;;;;1.58;74.29;95038.52;1759490;80;21034;-58
2022/11/29 02:23:38;;;;;;;27.65;24.85;;;;;;;1.70;74.09;95042.81;1763222;80;20969;-57
2022/11/29 02:26:35;;;;;;;18.50;15.93;;;;;;;1.84;73.36;95040.34;1761941;80;21308;-57
2022/11/29 02:29:26;;;;;;;33.08;22.82;;;;;;;1.88;72.69;95043.03;1761618;80;20976;-56
2022/11/29 02:32:32;;;;;;;19.92;14.30;;;;;;;1.85;72.60;95043.24;1759507;80;21123;-58
2022/11/29 02:35:21;;;;;;;29.23;18.30;;;;;;;1.81;72.16;95040.32;1762692;80;21063;-57
2022/11/29 02:38:12;;;;;;;36.20;19.32;;;;;;;1.80;72.25;95046.31;1756880;80;21067;-56
2022/11/29 02:41:01;;;;;;;30.65;19.07;;;;;;;1.78;72.50;95037.78;1757549;80;21275;-57
2022/11/29 02:44:20;;;;;;;30.08;19.45;;;;;;;1.85;72.25;95043.24;1756413;80;21079;-57
2022/11/29 02:47:20;;;;;;;36.03;20.00;;;;;;;1.88;72.15;95045.75;1766406;80;20989;-57
2022/11/29 02:50:10;;;;;;;20.92;13.13;;;;;;;1.93;71.93;95043.44;1766600;80;21120;-57
2022/11/29 02:53:07;;;;;;;83.82;35.60;;;;;;;1.95;71.80;95044.42;1767520;80;21094;-56
2022/11/29 02:55:45;;;;;;;74.75;33.10;;;;;;;1.99;71.60;95051.39;1724119;82;21485;-57
2022/11/29 02:58:57;;;;;;;44.53;24.43;;;;;;;2.05;71.60;95051.79;1751381;80;21230;-57
2022/11/29 03:01:41;;;;;;;28.67;17.62;;;;;;;2.06;71.53;95056.84;1715198;82;21001;-56
2022/11/29 03:04:50;;;;;;;26.17;15.50;;;;;;;2.09;71.31;95055.28;1732078;82;20997;-57
2022/11/29 03:07:45;;;;;;;16.70;11.93;;;;;;;2.17;71.27;95066.36;1734006;82;20956;-58
2022/11/29 03:10:49;;;;;;;18.17;13.83;;;;;;;2.21;70.92;95056.27;1725421;82;22165;-57
2022/11/29 03:13:38;;;;;;;22.13;15.32;;;;;;;2.26;70.79;95057.23;1735132;81;21089;-58
2022/11/29 03:16:24;;;;;;;23.42;15.35;;;;;;;2.30;70.68;95060.75;1710531;82;21032;-57
2022/11/29 03:19:17;;;;;;;23.52;15.35;;;;;;;2.35;70.33;95061.72;1648869;85;21160;-57
2022/11/29 03:21:57;;;;;;;;;;;;;;;2.39;69.87;95054.34;1649186;86;21097;-57
2022/11/29 03:24:35;;;;;;;24.27;15.20;;;;;;;2.43;69.89;95057.83;1637858;86;22515;-57
2022/11/29 03:27:06;;;;;;;20.40;15.13;;;;;;;2.48;69.50;95062.30;1644203;85;20998;-56
2022/11/29 03:29:41;;;;;;;18.90;12.88;;;;;;;2.38;69.19;95058.23;1648372;86;21165;-57
2022/11/29 03:32:25;;;;;;;16.27;12.60;;;;;;;2.30;69.58;95058.05;1659527;83;21156;-58
2022/11/29 03:35:36;;;;;;;11.53;9.08;;;;;;;2.32;69.57;95063.86;1707593;82;21182;-57
2022/11/29 03:38:28;;;;;;;13.68;10.32;;;;;;;2.35;69.33;95066.55;1700775;82;21105;-58
2022/11/29 03:41:21;;;;;;;14.78;11.45;;;;;;;2.29;69.67;95057.84;1702971;82;21106;-59
2022/11/29 03:43:54;;;;;;;28.15;20.23;;;;;;;2.39;69.63;95066.56;1700276;82;21689;-57
2022/11/29 03:46:32;;;;;;;12.37;11.05;;;;;;;2.49;68.84;95068.52;1690582;82;21099;-59
2022/11/29 03:49:04;;;;;;;11.73;10.65;;;;;;;2.49;68.84;95068.52;1645451;86;21126;-56
2022/11/29 03:51:51;;;;;;;;;;;;;;;2.29;68.89;95074.13;1565784;91;21184;-58
2022/11/29 03:54:24;;;;;;;21.93;18.37;;;;;;;2.19;69.36;95078.39;1533232;92;20205;-59
2022/11/29 03:56:52;;;;;;;17.20;15.45;;;;;;;2.09;69.57;95075.63;1564163;88;21038;-58
2022/11/29 03:59:39;;;;;;;10.38;9.38;;;;;;;2.04;69.87;95067.30;1577235;88;21206;-58
2022/11/29 04:02:45;;;;;;;9.88;8.68;;;;;;;2.04;69.72;95067.30;1531016;92;21135;-57
2022/11/29 06:12:15;;;;;;;29.05;12.95;;;;;;;0.23;73.35;95142.84;1834371;77;26155;-57
2022/11/29 06:15:10;;;;;;;22.75;11.08;;;;;;;0.19;72.98;95132.57;1806214;78;21084;-55
2022/11/29 06:18:15;;;;;;;15.90;11.45;;;;;;;0.19;73.07;95140.69;1808619;78;21171;-56
2022/11/29 06:21:11;;;;;;;21.68;17.55;;;;;;;0.22;73.08;95139.94;1802814;78;21415;-59
2022/11/29 06:24:19;;;;;;;24.52;13.15;;;;;;;0.24;72.74;95136.88;1799497;79;20934;-56
2022/11/29 06:27:02;;;;;;;26.82;11.12;;;;;;;0.24;72.69;95145.75;1735963;81;21467;-56
2022/11/29 06:29:37;;;;;;;21.17;14.35;;;;;;;0.30;72.72;95140.23;1729868;81;21033;-57
2022/11/29 06:32:23;;;;;;;17.10;12.35;;;;;;;0.35;72.59;95145.29;1731393;81;21270;-57
2022/11/29 06:35:17;;;;;;;41.75;12.55;;;;;;;0.44;72.56;95148.45;1679096;83;21033;-56
2022/11/29 06:37:48;;;;;;;23.00;12.47;;;;;;;0.54;72.42;95156.46;1674163;84;20990;-56
2022/11/29 06:40:15;;;;;;;16.82;11.97;;;;;;;0.63;72.22;95146.87;1689117;83;21057;-55
2022/11/29 06:42:42;;;;;;;36.15;24.50;;;;;;;0.69;72.07;95146.76;1683460;83;21216;-55
2022/11/29 06:45:14;;;;;;;29.20;18.02;;;;;;;0.77;71.95;95147.59;1666056;84;21258;-54
2022/11/29 06:48:02;;;;;;;35.88;25.05;;;;;;;0.84;71.50;95149.78;1664282;84;21270;-53
2022/11/29 06:50:46;;;;;;;34.83;21.20;;;;;;;0.87;71.70;95154.44;1641992;86;21228;-53
2022/11/29 06:53:43;;;;;;;13.68;11.40;;;;;;;0.97;71.35;95152.38;1649022;84;21620;-49
2022/11/29 06:56:30;;;;;;;25.12;12.65;;;;;;;1.06;71.11;95154.20;1629484;86;21236;-54
2022/11/29 06:59:08;;;;;;;17.00;12.23;;;;;;;1.14;70.70;95157.14;1630232;86;21157;-47
2022/11/29 07:02:01;;;;;;;23.07;16.80;;;;;;;1.21;70.37;95149.08;1631563;85;21037;-54
2022/11/29 07:04:57;;;;;;;20.55;13.88;;;;;;;1.34;70.17;95161.13;1630279;86;21119;-51
2022/11/29 07:07:25;;;;;;;22.98;15.48;;;;;;;1.48;69.78;95155.05;1626674;86;21056;-50
2022/11/29 07:09:53;;;;;;;17.87;13.62;;;;;;;1.53;69.67;95151.38;1612915;85;21131;-56
2022/11/29 07:12:21;;;;;;;18.95;9.35;;;;;;;1.57;69.30;95152.19;1601775;85;21305;-52
2022/11/29 07:14:50;;;;;;;13.32;7.78;;;;;;;1.56;69.07;95159.33;1613531;87;21178;-54
2022/11/29 07:17:46;;;;;;;12.43;7.05;;;;;;;1.54;68.71;95162.41;1630578;85;21293;-50
2022/11/29 07:20:45;;;;;;;7.53;6.83;;;;;;;1.45;68.41;95159.28;1524598;92;21685;-56
2022/11/29 07:23:53;;;;;;;11.53;7.87;;;;;;;1.47;68.93;95157.55;1536294;90;21184;-53
2022/11/29 07:26:41;;;;;;;27.58;8.83;;;;;;;1.68;69.05;95153.59;1519478;92;21373;-58
2022/11/29 07:29:25;;;;;;;20.32;8.15;;;;;;;1.92;68.24;95151.75;1530998;92;21163;-60
2022/11/29 07:32:15;;;;;;;9.83;7.20;;;;;;;2.02;67.75;95158.38;1556642;89;21107;-57
2022/11/29 07:35:15;;;;;;;8.73;7.65;;;;;;;2.08;67.12;95158.19;1603410;88;22262;-55
2022/11/29 07:38:18;;;;;;;12.85;10.13;;;;;;;2.09;66.96;95159.73;1602897;87;21136;-53
2022/11/29 07:40:59;;;;;;;10.00;8.90;;;;;;;2.18;67.05;95162.29;1598151;87;21244;-54
2022/11/29 07:43:50;;;;;;;9.90;7.47;;;;;;;2.26;66.30;95160.37;1521185;92;21118;-51
2022/11/29 07:46:17;;;;;;;11.57;7.70;;;;;;;2.12;66.19;95156.28;1524262;92;21068;-54
2022/11/29 07:48:44;;;;;;;11.90;7.47;;;;;;;2.02;66.53;95158.38;1510273;93;21106;-56
2022/11/29 07:51:12;;;;;;;12.05;7.87;;;;;;;2.10;66.41;95158.61;1518421;91;21272;-57
2022/11/29 07:53:42;;;;;;;11.05;7.62;;;;;;;2.09;66.02;95152.95;1504849;92;21310;-55
2022/11/29 07:56:09;;;;;;;14.98;8.25;;;;;;;2.00;66.29;95154.67;1521312;84;21654;-60
2022/11/29 07:58:36;;;;;;;14.50;8.08;;;;;;;2.00;66.08;95159.34;1649900;84;21226;-49
2022/11/29 08:01:03;;;;;;;60.67;31.55;;;;;;;1.95;66.20;95146.91;1669352;83;21054;-53
2022/11/29 08:03:36;;;;;;;25.50;15.88;;;;;;;1.93;66.66;95155.25;1638409;85;21188;-57
2022/11/29 08:06:13;;;;;;;9.30;8.03;;;;;;;1.97;66.83;95147.90;1564364;89;21333;-56
2022/11/29 08:08:45;;;;;;;11.80;7.53;;;;;;;1.97;66.57;95147.30;1477998;95;21210;-48
2022/11/29 08:11:14;;;;;;;15.80;9.03;;;;;;;2.01;66.61;95147.33;1463222;95;21183;-56
2022/11/29 08:13:43;;;;;;;14.93;10.72;;;;;;;2.08;66.55;95151.41;1451995;96;21212;-55
2022/11/29 08:16:16;;;;;;;18.05;12.13;;;;;;;2.13;66.31;95155.13;1484057;95;21271;-54
2022/11/29 08:18:44;;;;;;;14.00;11.12;;;;;;;2.17;66.13;95150.48;1462995;95;21600;-54
2022/11/29 08:21:17;;;;;;;19.42;9.58;;;;;;;2.23;66.27;95146.22;1483019;94;21172;-55
2022/11/29 08:23:50;;;;;;;12.25;10.20;;;;;;;2.33;65.81;95146.84;1449008;97;21123;-55
2022/11/29 08:26:18;;;;;;;14.93;10.68;;;;;;;2.46;65.52;95146.64;1449057;97;21123;-52
2022/11/29 08:28:51;;;;;;;11.48;7.83;;;;;;;2.50;65.26;95147.45;1447067;97;21100;-53
2022/11/29 08:31:18;;;;;;;20.08;8.70;;;;;;;2.56;64.95;95149.41;1440878;96;21224;-52
2022/11/29 08:33:55;;;;;;;11.15;8.70;;;;;;;2.52;64.59;95146.48;1427401;98;21199;-57
2022/11/29 08:36:22;;;;;;;21.35;9.78;;;;;;;2.54;64.78;95146.87;1457358;96;21312;-57
2022/11/29 08:38:49;;;;;;;12.80;7.85;;;;;;;2.61;64.97;95153.66;1503931;94;21313;-54
2022/11/29 08:41:16;;;;;;;10.18;7.83;;;;;;;2.65;64.54;95159.30;1510868;92;21329;-54
2022/11/29 08:43:43;;;;;;;10.55;8.60;;;;;;;2.64;64.40;95152.87;1513005;92;21275;-53
2022/11/29 08:46:10;;;;;;;12.07;9.60;;;;;;;2.71;64.29;95157.73;1521927;92;21149;-53
2022/11/29 08:48:37;;;;;;;17.57;10.93;;;;;;;2.71;64.21;95154.27;1524912;93;21112;-53
2022/11/29 08:51:04;;;;;;;20.75;9.95;;;;;;;2.79;64.73;95155.23;1515378;92;21220;-54
2022/11/29 08:53:40;;;;;;;38.85;19.60;;;;;;;3.00;64.52;95152.52;1494651;93;21124;-55
2022/11/29 08:56:14;;;;;;;29.15;17.77;;;;;;;3.26;64.07;95151.34;1592064;88;22717;-53
2022/11/29 08:58:42;;;;;;;34.13;17.87;;;;;;;3.55;64.15;95144.85;1539553;90;21110;-59
2022/11/29 09:01:20;;;;;;;62.98;31.35;;;;;;;3.68;62.89;95140.55;1542273;90;21137;-56
2022/11/29 09:04:01;;;;;;;20.27;14.43;;;;;;;3.72;62.55;95146.75;1467468;95;21203;-52
2022/11/29 09:06:32;;;;;;;19.25;13.32;;;;;;;3.77;61.96;95140.92;1487229;94;21728;-51
2022/11/29 09:09:04;;;;;;;;;;;;;;;3.70;62.06;95135.48;1483259;93;21202;-51
2022/11/29 09:11:39;;;;;;;48.33;29.20;;;;;;;3.80;61.90;95133.33;1542264;88;20278;-56
2022/11/29 09:14:07;;;;;;;18.87;14.70;;;;;;;3.82;61.51;95133.70;1544180;88;21227;-53
2022/11/29 09:19:50;;;;;;;20.88;12.78;;;;;;;4.28;61.79;95120.64;1517385;92;21168;-56
2022/11/29 09:22:26;;;;;;;17.52;13.08;;;;;;;4.70;61.66;95126.42;1438865;97;21184;-55
2022/11/29 09:24:53;;;;;;;39.78;21.10;;;;;;;5.19;60.96;95124.06;1441160;98;21122;-59
2022/11/29 09:27:20;;;;;;;37.65;19.92;;;;;;;5.25;60.15;95119.14;1437785;97;21124;-55
2022/11/29 09:29:50;;;;;;;26.23;16.57;;;;;;;5.32;59.80;95118.30;1452205;96;21275;-59
2022/11/29 09:32:25;;;;;;;26.17;15.35;;;;;;;5.42;59.17;95113.34;1429747;98;21812;-59
2022/11/29 09:34:55;;;;;;;27.17;16.55;;;;;;;5.35;59.00;95116.13;1443541;97;21303;-54
2022/11/29 09:37:26;;;;;;;26.07;17.02;;;;;;;5.27;58.82;95111.93;1441912;98;21757;-54
2022/11/29 09:39:53;;;;;;;28.90;17.00;;;;;;;5.23;58.99;95107.68;1452896;97;21149;-56
2022/11/29 09:42:40;;;;;;;37.60;20.90;;;;;;;5.22;59.49;95109.65;1449788;98;21217;-57
2022/11/29 09:45:10;;;;;;;34.25;17.50;;;;;;;5.29;59.24;95108.20;1449795;97;21146;-58
2022/11/29 09:48:10;;;;;;;29.10;20.02;;;;;;;5.44;58.91;95108.25;1394048;102;21235;-58
2022/11/29 09:50:50;;;;;;;15.53;12.28;;;;;;;5.59;58.41;95096.02;1417141;99;21252;-58
2022/11/29 09:53:25;;;;;;;27.02;19.87;;;;;;;5.50;56.86;95095.14;1414334;99;21605;-58
2022/11/29 09:56:16;;;;;;;50.40;35.73;;;;;;;5.32;57.27;95102.72;1415624;99;21262;-56
2022/11/29 09:59:11;;;;;;;46.48;28.98;;;;;;;5.21;57.67;95099.13;1424954;98;21155;-55
2022/11/29 10:01:46;;;;;;;32.13;20.25;;;;;;;4.98;57.63;95098.36;1402298;100;21342;-53
2022/11/29 10:04:21;;;;;;;30.62;18.42;;;;;;;4.99;59.38;95103.98;1386362;99;21772;-56
2022/11/29 10:07:20;;;;;;;23.18;14.05;;;;;;;5.23;59.08;95107.86;1414353;98;21217;-54
2022/11/29 10:10:05;;;;;;;14.38;11.35;;;;;;;5.65;58.71;95102.57;1426513;97;21124;-59
2022/11/29 10:12:53;;;;;;;14.00;10.65;;;;;;;6.19;58.43;95107.02;1407293;99;21245;-60
2022/11/29 10:15:27;;;;;;;26.82;15.63;;;;;;;6.59;56.06;95106.07;1422728;99;21232;-60
2022/11/29 10:18:00;;;;;;;31.23;17.40;;;;;;;7.01;56.38;95102.67;1402989;100;21223;-58
2022/11/29 10:20:34;;;;;;;22.05;11.78;;;;;;;7.36;54.97;95098.16;1413358;99;21254;-59
2022/11/29 10:23:27;;;;;;;19.55;13.20;;;;;;;7.67;54.41;95096.81;1446698;95;21228;-52
2022/11/29 10:25:55;;;;;;;;;;;;;;;8.14;53.35;95085.92;1457222;96;21530;-58
2022/11/29 10:28:32;;;;;;;15.53;8.98;;;;;;;8.45;52.14;95088.59;1459312;96;21576;-57
2022/11/29 10:31:36;;;;;;;15.35;9.50;;;;;;;8.58;52.40;95089.48;1468137;96;21211;-57
2022/11/29 10:34:21;;;;;;;15.35;10.40;;;;;;;8.74;51.69;95085.40;1480287;95;21354;-58
2022/11/29 10:37:00;;;;;;;9.53;7.50;;;;;;;8.83;50.98;95088.31;1482416;94;21148;-61
2022/11/29 10:39:42;;;;;;;7.78;6.62;;;;;;;8.61;50.84;95087.25;1444781;96;21140;-55
2022/11/29 10:45:28;;;;;;;7.33;6.35;;;;;;;8.14;51.12;95087.29;1451864;98;21241;-52
2022/11/29 10:48:05;;;;;;;10.18;8.20;;;;;;;7.86;51.01;95086.47;1443324;96;21712;-60
2022/11/29 10:50:34;;;;;;;8.63;7.15;;;;;;;7.64;51.28;95089.45;1444437;97;21225;-54
2022/11/29 10:53:16;;;;;;;9.38;6.40;;;;;;;7.25;51.88;95083.12;1437281;97;21186;-56
2022/11/29 10:56:02;;;;;;;18.60;9.58;;;;;;;6.93;52.13;95080.74;1449817;96;22075;-57
2022/11/29 10:58:31;;;;;;;12.00;9.23;;;;;;;6.49;53.34;95079.69;1461615;93;21173;-56
2022/11/29 11:01:05;;;;;;;10.13;7.95;;;;;;;6.15;53.73;95094.01;1516956;92;21111;-57
2022/11/29 11:03:42;;;;;;;9.88;7.58;;;;;;;5.79;54.85;95088.80;1511944;92;21229;-51
2022/11/29 11:06:28;;;;;;;6.22;5.62;;;;;;;5.44;55.74;95083.70;1520345;92;21146;-53
2022/11/29 11:09:19;;;;;;;9.00;7.55;;;;;;;5.11;56.28;95087.14;1474716;94;21533;-54
2022/11/29 11:11:56;;;;;;;16.55;7.47;;;;;;;4.80;57.52;95088.19;1495183;93;21135;-60
2022/11/29 11:14:28;;;;;;;8.18;7.37;;;;;;;4.77;58.28;95086.88;1522963;92;21621;-54
2022/11/29 11:16:56;;;;;;;7.90;7.10;;;;;;;4.80;59.14;95080.01;1521765;87;21170;-57
2022/11/29 11:19:33;;;;;;;18.98;10.18;;;;;;;4.82;59.28;95090.52;1622340;86;21169;-58
2022/11/29 11:22:01;;;;;;;12.13;8.50;;;;;;;4.89;59.42;95087.15;1603465;86;22490;-57
2022/11/29 11:24:32;;;;;;;8.70;7.03;;;;;;;4.94;59.03;95085.34;1617740;86;21680;-56
2022/11/29 11:26:59;;;;;;;11.45;7.65;;;;;;;4.92;59.05;95082.25;1531921;90;21085;-59
2022/11/29 11:29:39;;;;;;;8.48;7.58;;;;;;;4.82;59.17;95082.34;1538925;91;21100;-56
2022/11/29 11:32:18;;;;;;;13.93;8.43;;;;;;;4.63;59.32;95076.83;1468244;95;21159;-58
2022/11/29 11:34:55;;;;;;;12.20;9.68;;;;;;;4.40;59.99;95082.06;1424405;98;21280;-58
2022/11/29 11:37:28;;;;;;;10.78;8.53;;;;;;;4.41;61.01;95081.49;1430897;97;21226;-57
2022/11/29 11:39:58;;;;;;;13.85;9.05;;;;;;;4.46;61.02;95079.70;1446872;95;21187;-61
2022/11/29 11:42:36;;;;;;;12.88;8.55;;;;;;;4.41;61.36;95080.13;1444774;96;21199;-55
2022/11/29 11:45:15;;;;;;;10.98;7.45;;;;;;;4.36;61.86;95084.05;1453862;96;21077;-50
2022/11/29 11:47:56;;;;;;;9.40;8.28;;;;;;;4.46;61.76;95094.08;1475518;94;21978;-54
2022/11/29 11:50:36;;;;;;;9.50;8.53;;;;;;;4.54;61.43;95089.36;1380827;101;21789;-58
2022/11/29 11:53:16;;;;;;;19.57;9.80;;;;;;;4.55;61.16;95086.82;1416997;99;21110;-56
2022/11/29 11:56:03;;;;;;;26.15;17.57;;;;;;;4.66;61.00;95088.89;1369695;103;21309;-59
2022/11/29 11:58:54;;;;;;;14.87;11.40;;;;;;;4.61;60.44;95094.77;1377706;102;21349;-58
2022/11/29 12:01:38;;;;;;;10.45;8.65;;;;;;;4.51;60.63;95090.95;1373605;102;21341;-59
2022/11/29 12:04:16;;;;;;;13.50;9.00;;;;;;;4.42;60.81;95093.33;1333210;106;21296;-54
2022/11/29 12:07:01;;;;;;;13.18;10.32;;;;;;;4.28;61.12;95088.57;1333212;105;21267;-60
2022/11/29 12:09:58;;;;;;;16.73;10.15;;;;;;;4.18;61.94;95094.27;1340900;105;21132;-60
2022/11/29 12:12:30;;;;;;;11.83;9.85;;;;;;;4.26;62.33;95091.67;1287467;109;21273;-63
2022/11/29 12:15:20;;;;;;;16.97;10.13;;;;;;;4.28;62.12;95093.41;1319382;106;21895;-54
2022/11/29 12:17:56;;;;;;;17.10;10.45;;;;;;;4.28;62.08;95100.22;1295500;109;21399;-60
2022/11/29 12:20:38;;;;;;;18.42;10.20;;;;;;;4.18;62.07;95094.27;1308102;108;26764;-57
2022/11/29 12:23:14;;;;;;;15.45;9.15;;;;;;;4.05;62.35;95098.61;1315806;107;21961;-53
2022/11/29 12:25:59;;;;;;;17.25;10.98;;;;;;;3.89;62.86;95098.30;1316140;107;21730;-47
2022/11/29 12:28:32;;;;;;;16.23;12.07;;;;;;;3.91;63.02;95101.99;1320800;106;21266;-61
2022/11/29 12:31:07;;;;;;;254.90;109.83;;;;;;;3.92;63.07;95100.25;1336351;106;21156;-60
2022/11/29 12:33:39;;;;;;;60.17;29.77;;;;;;;3.97;63.29;95101.19;1348567;105;21215;-59
2022/11/29 12:36:14;;;;;;;34.92;18.27;;;;;;;4.00;63.06;95101.75;1345342;104;21251;-63
2022/11/29 12:39:14;;;;;;;25.12;15.78;;;;;;;3.93;63.14;95099.08;1339016;104;21164;-57
2022/11/29 12:41:59;;;;;;;15.18;11.30;;;;;;;3.89;63.49;95096.93;1338687;104;21290;-58
2022/11/29 12:44:50;;;;;;;11.18;8.98;;;;;;;3.85;64.07;95098.14;1325194;105;21217;-60
2022/11/29 12:47:54;;;;;;;12.45;10.28;;;;;;;3.72;64.41;95091.58;1310965;106;21182;-58
2022/11/29 12:53:29;;;;;;;15.43;10.85;;;;;;;3.74;65.61;95102.27;1326780;104;22655;-60
2022/11/29 12:56:09;;;;;;;20.32;12.90;;;;;;;3.82;64.95;95095.61;1398586;100;21256;-59
2022/11/29 12:59:04;;;;;;;18.48;11.60;;;;;;;3.86;64.94;95096.97;1417780;97;22215;-57
2022/11/29 13:11:35;;;;;;;20.77;14.03;;;;;;;3.90;64.53;95106.64;1811044;77;26336;-44
2022/11/29 13:14:14;;;;;;;27.50;17.23;;;;;;;3.85;64.12;95119.31;1727418;81;21023;-45
2022/11/29 13:16:55;;;;;;;27.13;15.58;;;;;;;3.73;64.32;95114.30;1748327;80;21244;-46
2022/11/29 13:19:45;;;;;;;26.68;16.50;;;;;;;3.65;64.67;95120.94;1736139;81;21272;-46
2022/11/29 13:22:39;;;;;;;16.55;12.10;;;;;;;3.54;65.23;95120.78;1743532;80;21592;-44
2022/11/29 13:25:19;;;;;;;18.10;11.38;;;;;;;3.49;65.18;95116.52;1727286;81;21086;-44
2022/11/29 13:27:57;;;;;;;19.55;14.18;;;;;;;3.36;65.54;95124.70;1724820;81;21124;-46
2022/11/29 13:30:25;;;;;;;25.43;17.02;;;;;;;3.31;65.88;95122.39;1672003;83;21283;-46
2022/11/29 13:33:06;;;;;;;18.40;14.03;;;;;;;3.26;66.47;95128.23;1634783;85;21148;-44
2022/11/29 13:35:53;;;;;;;16.87;12.23;;;;;;;3.26;66.67;95126.88;1606643;87;21089;-46
2022/11/29 13:45:55;;;;;;;35.68;20.37;;;;;;;3.28;67.02;95128.61;1802463;77;26593;-44
2022/11/29 13:48:36;;;;;;;17.45;12.55;;;;;;;3.19;67.28;95137.73;1685761;82;21107;-45
2022/11/29 13:51:33;;;;;;;14.50;10.45;;;;;;;3.14;67.70;95140.28;1688825;82;22455;-47
2022/11/29 13:54:03;;;;;;;10.75;9.53;;;;;;;3.10;67.64;95144.16;1695894;81;21073;-48
2022/11/29 13:56:47;;;;;;;9.30;8.20;;;;;;;3.07;67.38;95142.23;1697384;81;21091;-45
2022/11/29 13:59:28;;;;;;;20.62;14.00;;;;;;;2.99;67.35;95146.10;1692482;82;21129;-43
2022/11/29 14:01:57;;;;;;;11.15;9.95;;;;;;;2.90;67.57;95145.13;1674590;83;21538;-44
2022/11/29 14:04:37;;;;;;;16.35;10.35;;;;;;;2.83;68.03;95147.10;1664992;84;21197;-43
2022/11/29 14:07:11;;;;;;;14.85;10.93;;;;;;;2.76;68.42;95152.52;1612596;86;21124;-44
2022/11/29 14:09:59;;;;;;;13.68;11.05;;;;;;;2.74;68.82;95142.62;1601260;87;21064;-45
2022/11/29 14:12:39;;;;;;;13.93;9.95;;;;;;;2.71;69.12;95154.27;1596130;87;21172;-43
2022/11/29 14:15:27;;;;;;;11.22;10.00;;;;;;;2.65;69.37;95154.45;1621596;86;21655;-46
2022/11/29 14:17:57;;;;;;;12.00;10.18;;;;;;;2.63;69.76;95149.97;1570442;89;22133;-45
2022/11/29 14:20:29;;;;;;;13.68;10.45;;;;;;;2.63;69.88;95156.76;1565062;89;20980;-47
2022/11/29 14:23:11;;;;;;;15.28;11.50;;;;;;;2.69;70.22;95151.16;1562354;89;24867;-45
2022/11/29 14:25:55;;;;;;;16.95;13.48;;;;;;;2.69;70.14;95155.23;1578337;89;21245;-46
2022/11/29 14:28:37;;;;;;;14.75;12.13;;;;;;;2.69;70.17;95153.87;1586730;89;21623;-46
2022/11/29 14:33:48;;;;;;;17.32;11.55;;;;;;;2.57;70.33;95149.60;1817102;77;26220;-63
2022/11/29 14:36:53;;;;;;;24.98;15.45;;;;;;;2.49;70.64;95153.45;1728102;81;21081;-58
2022/11/29 14:39:45;;;;;;;41.10;22.93;;;;;;;2.52;70.90;95155.39;1698818;83;21757;-60
2022/11/29 14:42:20;;;;;;;23.27;17.17;;;;;;;2.56;70.57;95158.12;1624259;86;21637;-61
2022/11/29 14:45:03;;;;;;;23.73;14.33;;;;;;;2.59;70.72;95154.63;1647451;84;21292;-65
2022/11/29 14:47:38;;;;;;;;;;;;;;;2.62;70.58;95157.92;1660667;84;21140;-63
2022/11/29 14:50:09;;;;;;;19.77;15.28;;;;;;;2.59;70.51;95150.55;1635327;83;20228;-63
2022/11/29 14:52:41;;;;;;;27.70;13.35;;;;;;;2.51;70.68;95157.15;1633987;83;22370;-54
2022/11/29 14:55:17;;;;;;;17.67;13.50;;;;;;;2.49;70.80;95159.48;1627314;86;21101;-64
2022/11/29 14:57:52;;;;;;;24.27;15.65;;;;;;;2.45;70.81;95159.46;1607861;87;21124;-57
2022/11/29 15:00:36;;;;;;;17.92;14.55;;;;;;;2.41;71.16;95160.61;1626863;85;21160;-58
2022/11/29 15:03:20;;;;;;;22.42;12.95;;;;;;;2.41;71.15;95163.33;1604658;86;21639;-65
2022/11/29 15:06:09;;;;;;;24.75;15.40;;;;;;;2.41;71.24;95164.68;1611208;87;21915;-65
2022/11/29 15:09:05;;;;;;;29.25;16.70;;;;;;;2.37;71.24;95168.77;1610743;86;21153;-60
2022/11/29 15:11:52;;;;;;;27.62;17.62;;;;;;;2.25;71.41;95166.97;1607258;86;21133;-59
2022/11/29 15:14:47;;;;;;;22.22;15.55;;;;;;;2.14;71.70;95171.60;1487362;93;21215;-61
2022/11/29 15:17:28;;;;;;;19.30;12.58;;;;;;;2.08;71.99;95171.75;1479572;94;21612;-63
2022/11/29 15:20:22;;;;;;;22.27;13.28;;;;;;;1.99;72.34;95176.77;1480445;95;21221;-67
2022/11/29 15:22:54;;;;;;;35.88;18.23;;;;;;;1.95;72.59;95167.85;1490281;92;21186;-65
2022/11/29 15:25:25;;;;;;;43.38;21.90;;;;;;;1.88;72.81;95169.95;1522169;92;21363;-65
2022/11/29 15:28:03;;;;;;;33.33;20.70;;;;;;;1.85;73.11;95175.36;1527395;92;21294;-65
2022/11/29 15:30:37;;;;;;;41.40;23.32;;;;;;;1.84;73.29;95176.52;1529469;91;22298;-64
2022/11/29 15:33:17;;;;;;;;;;;;;;;1.83;73.38;95176.31;1523713;91;21983;-65
2022/11/29 15:35:51;;;;;;;32.88;20.90;;;;;;;1.81;73.50;95170.50;1473417;95;20179;-58
2022/11/29 15:38:20;;;;;;;43.38;23.77;;;;;;;1.73;73.70;95178.39;1463622;96;21601;-62
2022/11/29 15:40:52;;;;;;;45.65;24.02;;;;;;;1.69;73.99;95182.27;1458250;95;21205;-60
2022/11/29 15:43:29;;;;;;;32.35;20.02;;;;;;;1.67;74.25;95180.52;1463673;95;21187;-62
2022/11/29 15:45:57;;;;;;;24.55;19.42;;;;;;;1.68;74.45;95178.76;1474822;95;21199;-59
2022/11/29 15:48:32;;;;;;;25.05;17.62;;;;;;;1.65;74.30;95176.81;1471513;95;21454;-57
2022/11/29 15:51:22;;;;;;;20.92;14.63;;;;;;;1.60;74.81;95181.25;1473872;95;21253;-61
2022/11/29 15:54:07;;;;;;;28.75;17.90;;;;;;;1.66;74.81;95182.43;1495867;94;21127;-65
2022/11/29 15:56:41;;;;;;;20.85;15.00;;;;;;;1.70;74.78;95179.16;1505944;93;21224;-63
2022/11/29 15:59:19;;;;;;;30.92;15.48;;;;;;;1.77;74.70;95185.39;1480186;95;21397;-61
2022/11/29 16:01:47;;;;;;;31.90;19.95;;;;;;;1.89;74.74;95182.92;1445770;98;21185;-59
2022/11/29 20:06:53;;;;;;;36.77;24.40;;;;;;;0.37;81.66;95289.09;1824535;77;26781;-45
2022/11/29 20:09:21;;;;;;;41.13;24.43;;;;;;;0.41;81.60;95285.09;1805411;78;20962;-48
2022/11/29 20:11:48;;;;;;;31.23;22.73;;;;;;;0.49;81.71;95291.57;1796424;78;21269;-47
2022/11/29 20:14:15;;;;;;;39.35;24.50;;;;;;;0.58;81.72;95286.62;1804800;78;20942;-45
2022/11/29 20:16:42;;;;;;;31.02;22.60;;;;;;;0.71;81.99;95287.94;1788510;78;20965;-45
2022/11/29 20:19:13;;;;;;;36.30;27.52;;;;;;;0.91;81.89;95286.59;1781347;79;20958;-44
2022/11/29 20:21:46;;;;;;;48.45;24.10;;;;;;;1.06;81.16;95290.99;1785426;79;21489;-45
2022/11/29 20:24:13;;;;;;;34.00;25.57;;;;;;;1.11;80.71;95279.80;1791489;79;21867;-45
2022/11/29 20:26:44;;;;;;;31.37;21.12;;;;;;;1.20;80.71;95281.64;1792442;78;20955;-45
2022/11/29 20:29:12;;;;;;;35.48;24.75;;;;;;;1.28;80.36;95281.89;1796619;78;20967;-45
2022/11/29 20:31:39;;;;;;;33.60;23.83;;;;;;;1.29;80.03;95272.61;1790750;78;21064;-47
2022/11/29 20:34:08;;;;;;;32.35;23.15;;;;;;;1.26;79.71;95270.65;1811590;78;20962;-44
2022/11/29 20:37:00;;;;;;;27.58;20.82;;;;;;;1.25;79.73;95278.58;1787281;79;21170;-44
2022/11/29 20:40:01;;;;;;;28.95;20.52;;;;;;;1.30;79.93;95276.88;1777656;78;20962;-45
2022/11/29 20:42:51;;;;;;;31.27;22.82;;;;;;;1.36;79.60;95274.00;1794088;79;21023;-45
2022/11/29 20:45:19;;;;;;;43.83;24.02;;;;;;;1.37;79.12;95266.10;1808123;78;20977;-44
2022/11/29 20:47:54;;;;;;;35.20;22.10;;;;;;;1.33;79.14;95273.41;1812972;78;20990;-44
2022/11/29 20:50:24;;;;;;;33.18;22.30;;;;;;;1.38;79.28;95271.72;1805519;78;21164;-46
2022/11/29 20:53:18;;;;;;;31.45;20.17;;;;;;;1.42;79.25;95267.10;1773649;78;21021;-45
2022/11/29 20:55:44;;;;;;;53.80;29.07;;;;;;;1.51;78.84;95270.84;1806382;78;20954;-45
2022/11/29 20:58:11;;;;;;;49.03;27.82;;;;;;;1.47;78.40;95271.41;1787361;78;21013;-44
2022/11/29 21:00:38;;;;;;;33.25;22.15;;;;;;;1.46;78.42;95276.03;1799747;78;20973;-44
2022/11/29 21:03:04;;;;;;;67.08;37.53;;;;;;;1.45;78.09;95281.25;1792673;78;21442;-45
2022/11/29 21:05:31;;;;;;;38.08;24.47;;;;;;;1.45;78.46;95275.04;1790408;78;21038;-44
2022/11/29 21:07:58;;;;;;;33.80;22.73;;;;;;;1.59;78.66;95276.50;1802440;78;21010;-46
2022/11/29 21:10:26;;;;;;;35.20;23.05;;;;;;;1.72;78.03;95277.17;1793382;78;21006;-46
2022/11/29 21:12:53;;;;;;;33.55;23.38;;;;;;;1.71;77.70;95270.78;1779453;79;20966;-45
2022/11/29 21:15:21;;;;;;;35.70;25.30;;;;;;;1.81;77.83;95272.97;1794587;78;21216;-44